Vielsalm, Belgium
Current Conditions -  °F | °C
As of 7:03 PM on Thursday 23 Oct 2014 (Local Time) from EBLB Reporting Station
Broken Clouds Broken Clouds  
Wind Chill: 44°   Ceiling: 800
Heat Index: 46°   Visibility: 3mi
Dew Point: 45°   Wind: 5mph
Humidity: 93%   Direction: 220°SW
Pressure: 30.21"   Gusts: NA
Location:  50.28°N, 5.92°E
Report Text: EBLB 231703Z AUTO 22004KT 4800 FEW004/// SCT006/// BKN008/// 08/07 Q1023 YLO
Loading
Personal Weather Stations






























Interactive Weather Map
Tropical Storm Tracking
New forecast layout! Learn more

10-Day Weather Forecast

Advertisements
Track Severe Weather on mobile